sensor_id;sensor_type;location;lat;lon;timestamp;pressure;altitude;pressure_sealevel;temperature;humidity
21234;BME280;10774;42.178;26.578;2023-01-28T00:00:47;99257.66;;;3.36;100.00
21234;BME280;10774;42.178;26.578;2023-01-28T00:03:13;99256.78;;;3.17;100.00
21234;BME280;10774;42.178;26.578;2023-01-28T00:05:40;99284.28;;;3.54;100.00
21234;BME280;10774;42.178;26.578;2023-01-28T00:08:05;99287.75;;;3.35;100.00
21234;BME280;10774;42.178;26.578;2023-01-28T00:10:31;99292.28;;;3.33;100.00
21234;BME280;10774;42.178;26.578;2023-01-28T00:12:56;99294.78;;;3.36;100.00
21234;BME280;10774;42.178;26.578;2023-01-28T00:15:22;99299.56;;;3.49;100.00
21234;BME280;10774;42.178;26.578;2023-01-28T00:17:49;99286.78;;;3.57;100.00
21234;BME280;10774;42.178;26.578;2023-01-28T00:20:15;99298.34;;;3.17;100.00
21234;BME280;10774;42.178;26.578;2023-01-28T00:22:46;99299.81;;;3.42;100.00
21234;BME280;10774;42.178;26.578;2023-01-28T00:25:12;99288.72;;;2.73;100.00
21234;BME280;10774;42.178;26.578;2023-01-28T00:27:37;99306.78;;;2.63;100.00
21234;BME280;10774;42.178;26.578;2023-01-28T00:30:03;99299.88;;;3.02;100.00
21234;BME280;10774;42.178;26.578;2023-01-28T00:32:29;99307.28;;;3.34;100.00
21234;BME280;10774;42.178;26.578;2023-01-28T00:34:54;99316.34;;;3.49;100.00
21234;BME280;10774;42.178;26.578;2023-01-28T00:37:20;99302.28;;;3.66;100.00
21234;BME280;10774;42.178;26.578;2023-01-28T00:39:45;99322.94;;;3.78;100.00
21234;BME280;10774;42.178;26.578;2023-01-28T00:42:10;99311.84;;;3.70;100.00
21234;BME280;10774;42.178;26.578;2023-01-28T00:44:36;99299.34;;;3.14;100.00
21234;BME280;10774;42.178;26.578;2023-01-28T00:47:02;99317.69;;;3.39;100.00
21234;BME280;10774;42.178;26.578;2023-01-28T00:49:27;99307.00;;;3.20;100.00
21234;BME280;10774;42.178;26.578;2023-01-28T00:51:53;99297.22;;;3.22;100.00
21234;BME280;10774;42.178;26.578;2023-01-28T00:54:19;99319.59;;;3.35;100.00
21234;BME280;10774;42.178;26.578;2023-01-28T00:56:45;99323.78;;;3.21;100.00
21234;BME280;10774;42.178;26.578;2023-01-28T00:59:10;99330.75;;;2.82;100.00
21234;BME280;10774;42.178;26.578;2023-01-28T01:01:36;99335.41;;;2.98;100.00
21234;BME280;10774;42.178;26.578;2023-01-28T01:04:01;99332.22;;;3.10;100.00
21234;BME280;10774;42.178;26.578;2023-01-28T01:06:35;99330.34;;;2.71;100.00
21234;BME280;10774;42.178;26.578;2023-01-28T01:09:02;99336.19;;;2.57;100.00
21234;BME280;10774;42.178;26.578;2023-01-28T01:11:28;99342.75;;;2.49;100.00
21234;BME280;10774;42.178;26.578;2023-01-28T01:13:56;99335.22;;;2.60;100.00
21234;BME280;10774;42.178;26.578;2023-01-28T01:16:24;99345.59;;;2.44;100.00
21234;BME280;10774;42.178;26.578;2023-01-28T01:18:51;99342.06;;;2.44;100.00
21234;BME280;10774;42.178;26.578;2023-01-28T01:21:19;99343.72;;;2.46;100.00
21234;BME280;10774;42.178;26.578;2023-01-28T01:23:45;99334.19;;;2.84;100.00
21234;BME280;10774;42.178;26.578;2023-01-28T01:26:11;99344.41;;;2.94;100.00
21234;BME280;10774;42.178;26.578;2023-01-28T01:28:37;99340.03;;;2.28;100.00
21234;BME280;10774;42.178;26.578;2023-01-28T01:31:09;99337.13;;;2.34;100.00
21234;BME280;10774;42.178;26.578;2023-01-28T01:33:34;99337.00;;;2.59;100.00
21234;BME280;10774;42.178;26.578;2023-01-28T01:36:00;99345.94;;;2.35;100.00
21234;BME280;10774;42.178;26.578;2023-01-28T01:38:26;99343.28;;;2.13;100.00
21234;BME280;10774;42.178;26.578;2023-01-28T01:40:55;99353.69;;;1.96;100.00
21234;BME280;10774;42.178;26.578;2023-01-28T01:43:22;99362.59;;;2.39;100.00
21234;BME280;10774;42.178;26.578;2023-01-28T01:45:57;99355.59;;;2.58;100.00
21234;BME280;10774;42.178;26.578;2023-01-28T01:48:30;99351.66;;;2.68;100.00
21234;BME280;10774;42.178;26.578;2023-01-28T01:51:02;99353.25;;;2.72;100.00
21234;BME280;10774;42.178;26.578;2023-01-28T01:53:30;99371.19;;;2.22;100.00
21234;BME280;10774;42.178;26.578;2023-01-28T01:55:59;99360.34;;;2.06;100.00
21234;BME280;10774;42.178;26.578;2023-01-28T01:58:29;99357.81;;;2.25;100.00
21234;BME280;10774;42.178;26.578;2023-01-28T02:00:55;99364.84;;;2.48;100.00
21234;BME280;10774;42.178;26.578;2023-01-28T02:03:29;99362.59;;;2.39;100.00
21234;BME280;10774;42.178;26.578;2023-01-28T02:05:58;99373.28;;;2.57;100.00
21234;BME280;10774;42.178;26.578;2023-01-28T02:08:23;99369.59;;;2.40;100.00
21234;BME280;10774;42.178;26.578;2023-01-28T02:11:04;99371.63;;;2.11;100.00
21234;BME280;10774;42.178;26.578;2023-01-28T02:13:34;99377.34;;;2.22;100.00
21234;BME280;10774;42.178;26.578;2023-01-28T02:16:02;99386.59;;;2.56;100.00
21234;BME280;10774;42.178;26.578;2023-01-28T02:18:29;99389.56;;;2.70;100.00
21234;BME280;10774;42.178;26.578;2023-01-28T02:21:34;99390.66;;;2.86;100.00
21234;BME280;10774;42.178;26.578;2023-01-28T02:29:46;99387.88;;;3.10;100.00
21234;BME280;10774;42.178;26.578;2023-01-28T02:32:19;99389.22;;;3.20;100.00
21234;BME280;10774;42.178;26.578;2023-01-28T02:34:55;99382.59;;;3.30;100.00
21234;BME280;10774;42.178;26.578;2023-01-28T02:37:35;99394.25;;;3.47;100.00
21234;BME280;10774;42.178;26.578;2023-01-28T02:40:10;99386.44;;;3.44;100.00
21234;BME280;10774;42.178;26.578;2023-01-28T02:42:38;99399.16;;;3.56;100.00
21234;BME280;10774;42.178;26.578;2023-01-28T02:45:26;99389.38;;;3.37;100.00
21234;BME280;10774;42.178;26.578;2023-01-28T02:48:13;99396.78;;;3.50;100.00
21234;BME280;10774;42.178;26.578;2023-01-28T02:50:51;99391.88;;;3.40;100.00
21234;BME280;10774;42.178;26.578;2023-01-28T02:53:30;99398.22;;;3.57;100.00
21234;BME280;10774;42.178;26.578;2023-01-28T03:02:09;99397.53;;;3.33;100.00
21234;BME280;10774;42.178;26.578;2023-01-28T03:04:52;99397.72;;;3.49;100.00
21234;BME280;10774;42.178;26.578;2023-01-28T03:07:22;99412.16;;;3.62;100.00
21234;BME280;10774;42.178;26.578;2023-01-28T03:09:51;99390.16;;;3.39;100.00
21234;BME280;10774;42.178;26.578;2023-01-28T03:12:22;99395.97;;;3.68;100.00
21234;BME280;10774;42.178;26.578;2023-01-28T03:17:57;99397.84;;;3.46;100.00
21234;BME280;10774;42.178;26.578;2023-01-28T03:20:53;99396.41;;;3.38;100.00
21234;BME280;10774;42.178;26.578;2023-01-28T03:26:59;99395.56;;;3.57;100.00
21234;BME280;10774;42.178;26.578;2023-01-28T03:29:45;99402.16;;;3.28;100.00
21234;BME280;10774;42.178;26.578;2023-01-28T03:32:30;99401.97;;;3.12;100.00
21234;BME280;10774;42.178;26.578;2023-01-28T03:35:17;99391.53;;;2.65;100.00
21234;BME280;10774;42.178;26.578;2023-01-28T03:38:05;99403.97;;;2.63;100.00
21234;BME280;10774;42.178;26.578;2023-01-28T03:40:56;99389.16;;;2.79;100.00
21234;BME280;10774;42.178;26.578;2023-01-28T03:43:22;99396.69;;;2.90;100.00
21234;BME280;10774;42.178;26.578;2023-01-28T03:45:48;99408.91;;;3.14;100.00
21234;BME280;10774;42.178;26.578;2023-01-28T03:48:23;99417.06;;;3.30;100.00
21234;BME280;10774;42.178;26.578;2023-01-28T03:50:48;99418.63;;;2.94;100.00
21234;BME280;10774;42.178;26.578;2023-01-28T03:53:15;99409.03;;;2.69;100.00
21234;BME280;10774;42.178;26.578;2023-01-28T03:55:41;99418.06;;;2.63;100.00
21234;BME280;10774;42.178;26.578;2023-01-28T03:58:08;99417.09;;;2.66;100.00
21234;BME280;10774;42.178;26.578;2023-01-28T04:00:34;99421.53;;;2.44;100.00
21234;BME280;10774;42.178;26.578;2023-01-28T04:03:04;99412.84;;;2.40;100.00
21234;BME280;10774;42.178;26.578;2023-01-28T04:08:09;99434.28;;;2.56;100.00
21234;BME280;10774;42.178;26.578;2023-01-28T04:10:34;99434.38;;;2.53;100.00
21234;BME280;10774;42.178;26.578;2023-01-28T04:12:59;99437.75;;;2.80;100.00
21234;BME280;10774;42.178;26.578;2023-01-28T04:15:25;99440.19;;;2.84;100.00
21234;BME280;10774;42.178;26.578;2023-01-28T04:17:50;99439.69;;;3.19;100.00
21234;BME280;10774;42.178;26.578;2023-01-28T04:20:16;99428.69;;;3.28;100.00
21234;BME280;10774;42.178;26.578;2023-01-28T04:22:41;99449.59;;;3.56;100.00
21234;BME280;10774;42.178;26.578;2023-01-28T04:25:08;99452.03;;;3.81;100.00
21234;BME280;10774;42.178;26.578;2023-01-28T04:27:33;99450.91;;;3.86;100.00
21234;BME280;10774;42.178;26.578;2023-01-28T04:29:59;99444.28;;;3.95;100.00
21234;BME280;10774;42.178;26.578;2023-01-28T04:32:24;99420.84;;;4.05;100.00
21234;BME280;10774;42.178;26.578;2023-01-28T04:34:49;99444.06;;;4.20;100.00
21234;BME280;10774;42.178;26.578;2023-01-28T04:37:15;99441.69;;;4.14;100.00
21234;BME280;10774;42.178;26.578;2023-01-28T04:39:40;99452.19;;;4.17;100.00
21234;BME280;10774;42.178;26.578;2023-01-28T04:42:06;99447.53;;;4.22;100.00
21234;BME280;10774;42.178;26.578;2023-01-28T04:44:31;99454.34;;;4.28;100.00
21234;BME280;10774;42.178;26.578;2023-01-28T04:46:56;99462.06;;;4.32;100.00
21234;BME280;10774;42.178;26.578;2023-01-28T04:49:22;99459.56;;;4.29;100.00
21234;BME280;10774;42.178;26.578;2023-01-28T04:51:47;99464.22;;;4.24;100.00
21234;BME280;10774;42.178;26.578;2023-01-28T04:54:13;99452.22;;;3.76;100.00
21234;BME280;10774;42.178;26.578;2023-01-28T04:56:38;99454.50;;;3.65;100.00
21234;BME280;10774;42.178;26.578;2023-01-28T04:59:04;99458.31;;;3.17;100.00
21234;BME280;10774;42.178;26.578;2023-01-28T05:01:29;99470.69;;;3.38;100.00
21234;BME280;10774;42.178;26.578;2023-01-28T05:03:55;99466.31;;;3.37;100.00
21234;BME280;10774;42.178;26.578;2023-01-28T05:06:20;99481.81;;;3.47;100.00
21234;BME280;10774;42.178;26.578;2023-01-28T05:08:45;99476.00;;;3.59;100.00
21234;BME280;10774;42.178;26.578;2023-01-28T05:11:11;99478.91;;;3.73;100.00
21234;BME280;10774;42.178;26.578;2023-01-28T05:13:37;99465.59;;;3.75;100.00
21234;BME280;10774;42.178;26.578;2023-01-28T05:16:04;99473.72;;;3.50;100.00
21234;BME280;10774;42.178;26.578;2023-01-28T05:18:29;99491.81;;;3.40;100.00
21234;BME280;10774;42.178;26.578;2023-01-28T05:20:55;99477.56;;;3.42;100.00
21234;BME280;10774;42.178;26.578;2023-01-28T05:23:20;99487.09;;;3.47;100.00
21234;BME280;10774;42.178;26.578;2023-01-28T05:25:46;99478.78;;;3.56;100.00
21234;BME280;10774;42.178;26.578;2023-01-28T05:28:11;99496.13;;;3.63;100.00
21234;BME280;10774;42.178;26.578;2023-01-28T05:30:37;99510.16;;;3.87;100.00
21234;BME280;10774;42.178;26.578;2023-01-28T05:33:03;99505.63;;;3.68;100.00
21234;BME280;10774;42.178;26.578;2023-01-28T05:35:28;99511.38;;;3.80;100.00
21234;BME280;10774;42.178;26.578;2023-01-28T05:37:54;99519.56;;;3.74;100.00
21234;BME280;10774;42.178;26.578;2023-01-28T05:40:19;99522.00;;;3.80;100.00
21234;BME280;10774;42.178;26.578;2023-01-28T05:42:45;99511.97;;;3.86;100.00
21234;BME280;10774;42.178;26.578;2023-01-28T05:45:10;99522.94;;;3.57;100.00
21234;BME280;10774;42.178;26.578;2023-01-28T05:47:36;99507.81;;;3.79;100.00
21234;BME280;10774;42.178;26.578;2023-01-28T05:50:02;99521.09;;;4.00;100.00
21234;BME280;10774;42.178;26.578;2023-01-28T05:52:28;99526.66;;;4.14;100.00
21234;BME280;10774;42.178;26.578;2023-01-28T05:54:53;99527.06;;;4.05;100.00
21234;BME280;10774;42.178;26.578;2023-01-28T05:57:18;99531.41;;;4.07;100.00
21234;BME280;10774;42.178;26.578;2023-01-28T05:59:44;99543.47;;;4.14;100.00
21234;BME280;10774;42.178;26.578;2023-01-28T06:02:09;99547.66;;;4.00;100.00
21234;BME280;10774;42.178;26.578;2023-01-28T06:04:34;99554.16;;;4.33;100.00
21234;BME280;10774;42.178;26.578;2023-01-28T06:07:00;99559.00;;;4.24;100.00
21234;BME280;10774;42.178;26.578;2023-01-28T06:09:25;99551.63;;;4.10;100.00
21234;BME280;10774;42.178;26.578;2023-01-28T06:11:51;99561.28;;;4.12;100.00
21234;BME280;10774;42.178;26.578;2023-01-28T06:14:17;99562.13;;;3.92;100.00
21234;BME280;10774;42.178;26.578;2023-01-28T06:16:42;99560.66;;;4.06;100.00
21234;BME280;10774;42.178;26.578;2023-01-28T06:19:08;99566.38;;;4.17;100.00
21234;BME280;10774;42.178;26.578;2023-01-28T06:21:33;99567.56;;;4.30;100.00
21234;BME280;10774;42.178;26.578;2023-01-28T06:23:59;99570.00;;;4.35;100.00
21234;BME280;10774;42.178;26.578;2023-01-28T06:26:24;99575.41;;;4.33;100.00
21234;BME280;10774;42.178;26.578;2023-01-28T06:28:49;99574.75;;;4.08;100.00
21234;BME280;10774;42.178;26.578;2023-01-28T06:31:15;99556.56;;;3.99;100.00
21234;BME280;10774;42.178;26.578;2023-01-28T06:33:40;99565.09;;;3.42;100.00
21234;BME280;10774;42.178;26.578;2023-01-28T06:36:06;99574.59;;;3.70;100.00
21234;BME280;10774;42.178;26.578;2023-01-28T06:38:32;99576.78;;;3.38;100.00
21234;BME280;10774;42.178;26.578;2023-01-28T06:40:57;99583.09;;;2.91;100.00
21234;BME280;10774;42.178;26.578;2023-01-28T06:43:23;99577.53;;;2.75;100.00
21234;BME280;10774;42.178;26.578;2023-01-28T06:45:56;99583.69;;;2.75;100.00
21234;BME280;10774;42.178;26.578;2023-01-28T06:48:22;99575.16;;;2.91;100.00
21234;BME280;10774;42.178;26.578;2023-01-28T06:50:48;99579.88;;;2.82;100.00
21234;BME280;10774;42.178;26.578;2023-01-28T06:53:15;99597.38;;;2.86;100.00
21234;BME280;10774;42.178;26.578;2023-01-28T06:55:40;99589.03;;;2.74;100.00
21234;BME280;10774;42.178;26.578;2023-01-28T06:58:06;99601.88;;;3.08;100.00
21234;BME280;10774;42.178;26.578;2023-01-28T07:00:31;99607.53;;;3.21;100.00
21234;BME280;10774;42.178;26.578;2023-01-28T07:02:57;99601.69;;;3.34;100.00
21234;BME280;10774;42.178;26.578;2023-01-28T07:05:23;99608.16;;;3.71;100.00
21234;BME280;10774;42.178;26.578;2023-01-28T07:07:48;99618.66;;;3.52;100.00
21234;BME280;10774;42.178;26.578;2023-01-28T07:10:14;99620.63;;;3.25;100.00
21234;BME280;10774;42.178;26.578;2023-01-28T07:12:39;99598.47;;;3.26;100.00
21234;BME280;10774;42.178;26.578;2023-01-28T07:15:05;99605.81;;;3.20;100.00
21234;BME280;10774;42.178;26.578;2023-01-28T07:17:31;99596.06;;;3.20;100.00
21234;BME280;10774;42.178;26.578;2023-01-28T07:19:56;99601.03;;;3.29;100.00
21234;BME280;10774;42.178;26.578;2023-01-28T07:22:22;99610.03;;;3.47;100.00
21234;BME280;10774;42.178;26.578;2023-01-28T07:24:47;99610.63;;;3.32;100.00
21234;BME280;10774;42.178;26.578;2023-01-28T07:27:13;99629.78;;;3.62;100.00
21234;BME280;10774;42.178;26.578;2023-01-28T07:29:38;99625.81;;;3.72;100.00
21234;BME280;10774;42.178;26.578;2023-01-28T07:32:04;99631.56;;;4.04;100.00
21234;BME280;10774;42.178;26.578;2023-01-28T07:34:32;99640.63;;;4.40;100.00
21234;BME280;10774;42.178;26.578;2023-01-28T07:36:57;99648.25;;;4.48;100.00
21234;BME280;10774;42.178;26.578;2023-01-28T07:39:23;99637.31;;;4.35;100.00
21234;BME280;10774;42.178;26.578;2023-01-28T07:41:48;99645.25;;;4.56;100.00
21234;BME280;10774;42.178;26.578;2023-01-28T07:44:14;99650.84;;;4.50;100.00
21234;BME280;10774;42.178;26.578;2023-01-28T07:46:39;99654.28;;;4.31;100.00
21234;BME280;10774;42.178;26.578;2023-01-28T07:49:05;99650.28;;;3.80;100.00
21234;BME280;10774;42.178;26.578;2023-01-28T07:51:30;99631.47;;;3.85;100.00
21234;BME280;10774;42.178;26.578;2023-01-28T07:53:56;99650.50;;;3.96;100.00
21234;BME280;10774;42.178;26.578;2023-01-28T07:56:21;99655.63;;;4.21;100.00
21234;BME280;10774;42.178;26.578;2023-01-28T07:58:50;99669.28;;;3.91;100.00
21234;BME280;10774;42.178;26.578;2023-01-28T08:01:15;99674.47;;;4.15;100.00
21234;BME280;10774;42.178;26.578;2023-01-28T08:03:42;99668.00;;;4.22;100.00
21234;BME280;10774;42.178;26.578;2023-01-28T08:06:07;99661.56;;;3.85;100.00
21234;BME280;10774;42.178;26.578;2023-01-28T08:08:33;99675.25;;;3.97;100.00
21234;BME280;10774;42.178;26.578;2023-01-28T08:11:06;99662.59;;;4.03;100.00
21234;BME280;10774;42.178;26.578;2023-01-28T08:13:33;99684.94;;;3.98;100.00
21234;BME280;10774;42.178;26.578;2023-01-28T08:15:58;99685.53;;;4.04;100.00
21234;BME280;10774;42.178;26.578;2023-01-28T08:18:23;99672.19;;;4.06;100.00
21234;BME280;10774;42.178;26.578;2023-01-28T08:20:54;99665.69;;;3.92;100.00
21234;BME280;10774;42.178;26.578;2023-01-28T08:23:19;99695.06;;;4.10;100.00
21234;BME280;10774;42.178;26.578;2023-01-28T08:25:46;99683.69;;;3.84;100.00
21234;BME280;10774;42.178;26.578;2023-01-28T08:28:12;99680.31;;;4.03;100.00
21234;BME280;10774;42.178;26.578;2023-01-28T08:30:38;99700.97;;;4.16;100.00
21234;BME280;10774;42.178;26.578;2023-01-28T08:33:08;99696.56;;;4.58;100.00
21234;BME280;10774;42.178;26.578;2023-01-28T08:35:34;99697.22;;;4.42;100.00
21234;BME280;10774;42.178;26.578;2023-01-28T08:38:01;99710.59;;;5.01;100.00
21234;BME280;10774;42.178;26.578;2023-01-28T08:40:28;99691.81;;;5.24;100.00
21234;BME280;10774;42.178;26.578;2023-01-28T08:42:54;99696.00;;;5.48;100.00
21234;BME280;10774;42.178;26.578;2023-01-28T08:45:22;99704.41;;;5.77;100.00
21234;BME280;10774;42.178;26.578;2023-01-28T08:48:02;99689.06;;;5.25;100.00
21234;BME280;10774;42.178;26.578;2023-01-28T08:50:30;99700.56;;;5.64;100.00
21234;BME280;10774;42.178;26.578;2023-01-28T08:53:01;99690.53;;;5.51;100.00
21234;BME280;10774;42.178;26.578;2023-01-28T08:55:27;99695.25;;;5.64;100.00
21234;BME280;10774;42.178;26.578;2023-01-28T08:57:53;99704.34;;;6.15;100.00
21234;BME280;10774;42.178;26.578;2023-01-28T09:00:20;99693.31;;;6.40;100.00
21234;BME280;10774;42.178;26.578;2023-01-28T09:02:46;99713.63;;;6.77;100.00
21234;BME280;10774;42.178;26.578;2023-01-28T09:05:11;99698.63;;;6.92;100.00
21234;BME280;10774;42.178;26.578;2023-01-28T09:07:38;99704.00;;;7.07;100.00
21234;BME280;10774;42.178;26.578;2023-01-28T09:10:04;99703.88;;;7.26;100.00
21234;BME280;10774;42.178;26.578;2023-01-28T09:12:31;99704.56;;;7.30;99.43
21234;BME280;10774;42.178;26.578;2023-01-28T09:14:56;99690.34;;;7.14;98.19
21234;BME280;10774;42.178;26.578;2023-01-28T09:17:22;99697.31;;;7.32;98.99
21234;BME280;10774;42.178;26.578;2023-01-28T09:19:48;99697.88;;;7.39;99.17
21234;BME280;10774;42.178;26.578;2023-01-28T09:22:13;99700.94;;;7.31;98.66
21234;BME280;10774;42.178;26.578;2023-01-28T09:24:39;99698.34;;;7.14;98.92
21234;BME280;10774;42.178;26.578;2023-01-28T09:27:04;99705.97;;;7.04;99.95
21234;BME280;10774;42.178;26.578;2023-01-28T09:29:30;99699.78;;;7.52;100.00
21234;BME280;10774;42.178;26.578;2023-01-28T09:31:55;99698.19;;;8.11;100.00
21234;BME280;10774;42.178;26.578;2023-01-28T09:34:20;99686.16;;;8.64;100.00
21234;BME280;10774;42.178;26.578;2023-01-28T09:36:46;99700.72;;;8.60;100.00
21234;BME280;10774;42.178;26.578;2023-01-28T09:39:11;99702.06;;;8.37;95.83
21234;BME280;10774;42.178;26.578;2023-01-28T09:47:03;99700.63;;;8.00;93.28
21234;BME280;10774;42.178;26.578;2023-01-28T09:49:47;99700.69;;;6.87;90.81
21234;BME280;10774;42.178;26.578;2023-01-28T09:52:17;99702.72;;;6.81;97.20
21234;BME280;10774;42.178;26.578;2023-01-28T09:55:38;99700.09;;;6.80;95.35
21234;BME280;10774;42.178;26.578;2023-01-28T09:57:48;99683.44;;;6.07;97.02
21234;BME280;10774;42.178;26.578;2023-01-28T10:00:17;99695.09;;;6.74;97.77
21234;BME280;10774;42.178;26.578;2023-01-28T10:19:46;99694.13;;;6.06;95.92
21234;BME280;10774;42.178;26.578;2023-01-28T10:24:54;99706.06;;;5.61;100.00
21234;BME280;10774;42.178;26.578;2023-01-28T10:27:25;99717.91;;;5.54;100.00
21234;BME280;10774;42.178;26.578;2023-01-28T10:29:52;99720.06;;;5.08;100.00
21234;BME280;10774;42.178;26.578;2023-01-28T10:32:31;99727.06;;;5.29;100.00
21234;BME280;10774;42.178;26.578;2023-01-28T10:34:58;99714.81;;;5.06;100.00
21234;BME280;10774;42.178;26.578;2023-01-28T10:37:26;99725.06;;;4.54;100.00
21234;BME280;10774;42.178;26.578;2023-01-28T10:39:56;99726.47;;;4.63;100.00
21234;BME280;10774;42.178;26.578;2023-01-28T10:42:33;99727.94;;;4.70;100.00
21234;BME280;10774;42.178;26.578;2023-01-28T10:48:00;99716.19;;;4.94;100.00
21234;BME280;10774;42.178;26.578;2023-01-28T10:50:28;99720.59;;;5.35;100.00
21234;BME280;10774;42.178;26.578;2023-01-28T10:52:57;99726.97;;;5.12;100.00
21234;BME280;10774;42.178;26.578;2023-01-28T10:55:29;99724.31;;;5.12;100.00
21234;BME280;10774;42.178;26.578;2023-01-28T10:57:57;99729.84;;;4.87;100.00
21234;BME280;10774;42.178;26.578;2023-01-28T11:00:26;99719.56;;;4.59;100.00
21234;BME280;10774;42.178;26.578;2023-01-28T11:02:52;99730.31;;;4.76;100.00
21234;BME280;10774;42.178;26.578;2023-01-28T11:05:31;99738.41;;;5.14;100.00
21234;BME280;10774;42.178;26.578;2023-01-28T11:10:34;99718.09;;;4.52;99.05
21234;BME280;10774;42.178;26.578;2023-01-28T11:13:04;99725.38;;;4.46;100.00
21234;BME280;10774;42.178;26.578;2023-01-28T11:15:31;99730.44;;;4.53;99.31
21234;BME280;10774;42.178;26.578;2023-01-28T11:18:00;99732.84;;;4.38;98.09
21234;BME280;10774;42.178;26.578;2023-01-28T11:20:28;99741.59;;;4.40;97.92
21234;BME280;10774;42.178;26.578;2023-01-28T11:22:56;99725.50;;;4.23;97.59
21234;BME280;10774;42.178;26.578;2023-01-28T11:25:36;99721.25;;;4.19;97.91
21234;BME280;10774;42.178;26.578;2023-01-28T11:28:04;99743.53;;;4.15;98.92
21234;BME280;10774;42.178;26.578;2023-01-28T11:30:37;99739.47;;;4.28;100.00
21234;BME280;10774;42.178;26.578;2023-01-28T11:33:14;99724.94;;;4.15;99.95
21234;BME280;10774;42.178;26.578;2023-01-28T11:35:41;99715.81;;;4.42;100.00
21234;BME280;10774;42.178;26.578;2023-01-28T11:38:20;99737.16;;;4.61;100.00
21234;BME280;10774;42.178;26.578;2023-01-28T11:40:50;99741.44;;;4.65;99.97
21234;BME280;10774;42.178;26.578;2023-01-28T11:43:21;99744.81;;;4.27;96.74
21234;BME280;10774;42.178;26.578;2023-01-28T11:46:15;99731.13;;;3.93;98.02
21234;BME280;10774;42.178;26.578;2023-01-28T11:49:00;99747.88;;;3.96;96.88
21234;BME280;10774;42.178;26.578;2023-01-28T12:00:13;99744.97;;;4.02;98.61
21234;BME280;10774;42.178;26.578;2023-01-28T12:02:52;99733.59;;;3.98;100.00
21234;BME280;10774;42.178;26.578;2023-01-28T12:08:45;99736.19;;;4.00;99.87
21234;BME280;10774;42.178;26.578;2023-01-28T12:11:35;99750.22;;;4.03;98.80
21234;BME280;10774;42.178;26.578;2023-01-28T12:17:32;99754.22;;;4.13;100.00
21234;BME280;10774;42.178;26.578;2023-01-28T12:36:19;99742.84;;;4.32;100.00
21234;BME280;10774;42.178;26.578;2023-01-28T12:41:33;99754.09;;;3.94;100.00
21234;BME280;10774;42.178;26.578;2023-01-28T12:44:02;99762.25;;;3.90;100.00
21234;BME280;10774;42.178;26.578;2023-01-28T12:49:06;99772.03;;;4.11;100.00
21234;BME280;10774;42.178;26.578;2023-01-28T12:51:50;99782.91;;;4.27;100.00
21234;BME280;10774;42.178;26.578;2023-01-28T12:54:40;99781.56;;;4.80;100.00
21234;BME280;10774;42.178;26.578;2023-01-28T12:57:29;99792.16;;;5.02;100.00
21234;BME280;10774;42.178;26.578;2023-01-28T13:00:25;99788.53;;;5.23;100.00
21234;BME280;10774;42.178;26.578;2023-01-28T13:05:51;99779.34;;;4.49;97.69
21234;BME280;10774;42.178;26.578;2023-01-28T13:08:20;99811.00;;;4.95;99.38
21234;BME280;10774;42.178;26.578;2023-01-28T13:10:47;99804.38;;;5.06;96.91
21234;BME280;10774;42.178;26.578;2023-01-28T13:13:39;99792.50;;;4.52;95.05
21234;BME280;10774;42.178;26.578;2023-01-28T13:16:09;99802.22;;;4.73;94.73
21234;BME280;10774;42.178;26.578;2023-01-28T13:21:06;99809.94;;;4.59;94.17
21234;BME280;10774;42.178;26.578;2023-01-28T13:23:48;99800.78;;;4.86;96.08
21234;BME280;10774;42.178;26.578;2023-01-28T13:28:43;99818.41;;;5.30;93.53
21234;BME280;10774;42.178;26.578;2023-01-28T13:31:13;99819.28;;;5.10;92.04
21234;BME280;10774;42.178;26.578;2023-01-28T13:34:01;99827.22;;;5.50;93.64
21234;BME280;10774;42.178;26.578;2023-01-28T13:36:42;99834.81;;;5.39;91.73
21234;BME280;10774;42.178;26.578;2023-01-28T13:41:39;99847.19;;;5.61;90.75
21234;BME280;10774;42.178;26.578;2023-01-28T13:46:42;99843.56;;;5.62;90.46
21234;BME280;10774;42.178;26.578;2023-01-28T13:49:15;99859.00;;;5.54;90.67
21234;BME280;10774;42.178;26.578;2023-01-28T13:54:36;99860.66;;;5.97;91.27
21234;BME280;10774;42.178;26.578;2023-01-28T14:05:59;99870.84;;;5.67;91.39
21234;BME280;10774;42.178;26.578;2023-01-28T14:17:44;99890.09;;;5.53;90.28
21234;BME280;10774;42.178;26.578;2023-01-28T14:20:43;99876.78;;;5.53;88.41
21234;BME280;10774;42.178;26.578;2023-01-28T14:23:17;99854.13;;;5.44;90.20
21234;BME280;10774;42.178;26.578;2023-01-28T14:31:13;99882.84;;;5.57;93.81
21234;BME280;10774;42.178;26.578;2023-01-28T14:33:40;99874.59;;;5.63;94.07
21234;BME280;10774;42.178;26.578;2023-01-28T14:36:10;99886.47;;;5.35;93.62
21234;BME280;10774;42.178;26.578;2023-01-28T14:38:40;99872.88;;;5.21;93.90
21234;BME280;10774;42.178;26.578;2023-01-28T14:41:08;99890.06;;;5.34;94.32
21234;BME280;10774;42.178;26.578;2023-01-28T14:43:35;99899.06;;;5.10;94.13
21234;BME280;10774;42.178;26.578;2023-01-28T14:46:16;99885.72;;;4.91;95.82
21234;BME280;10774;42.178;26.578;2023-01-28T14:49:28;99905.59;;;5.03;95.93
21234;BME280;10774;42.178;26.578;2023-01-28T14:59:53;99896.69;;;5.04;95.32
21234;BME280;10774;42.178;26.578;2023-01-28T15:02:27;99903.25;;;4.95;95.62
21234;BME280;10774;42.178;26.578;2023-01-28T15:04:54;99890.69;;;4.98;96.47
21234;BME280;10774;42.178;26.578;2023-01-28T15:07:23;99896.78;;;5.01;96.16
21234;BME280;10774;42.178;26.578;2023-01-28T15:10:19;99910.41;;;5.15;95.87
21234;BME280;10774;42.178;26.578;2023-01-28T15:12:58;99915.72;;;5.15;94.82
21234;BME280;10774;42.178;26.578;2023-01-28T15:15:32;99910.78;;;5.06;94.19
21234;BME280;10774;42.178;26.578;2023-01-28T15:18:14;99903.41;;;4.70;94.99
21234;BME280;10774;42.178;26.578;2023-01-28T15:20:44;99916.88;;;4.87;96.32